createdAt,value
2018-03-29T00:01:37.031Z,99.48
2018-03-29T00:04:03.080Z,99.18
2018-03-29T00:06:29.094Z,99.02
2018-03-29T00:08:55.193Z,98.89
2018-03-29T00:11:21.216Z,98.82
2018-03-29T00:13:47.306Z,98.65
2018-03-29T00:16:14.020Z,98.49
2018-03-29T00:18:40.079Z,98.31
2018-03-29T00:21:06.162Z,98.33
2018-03-29T00:23:32.180Z,98.47
2018-03-29T00:25:58.288Z,98.54
2018-03-29T00:28:24.319Z,98.37
2018-03-29T00:30:50.399Z,98.02
2018-03-29T00:33:16.423Z,97.55
2018-03-29T00:35:42.475Z,96.99
2018-03-29T00:38:08.500Z,96.65
2018-03-29T00:40:34.666Z,96.35
2018-03-29T00:43:00.748Z,96.22
2018-03-29T00:45:27.983Z,96.24
2018-03-29T00:47:54.023Z,96.32
2018-03-29T00:50:20.207Z,96.36
2018-03-29T00:52:46.259Z,96.32
2018-03-29T00:55:12.374Z,96.10
2018-03-29T00:57:38.420Z,95.80
2018-03-29T01:00:04.479Z,95.55
2018-03-29T01:02:30.627Z,95.12
2018-03-29T01:04:56.944Z,94.60
2018-03-29T01:07:22.978Z,94.33
2018-03-29T01:09:49.063Z,93.78
2018-03-29T01:12:19.042Z,93.43
2018-03-29T01:14:58.000Z,93.23
2018-03-29T01:17:23.901Z,93.08
2018-03-29T01:19:49.751Z,92.76
2018-03-29T01:22:15.625Z,92.36
2018-03-29T01:24:41.492Z,92.04
2018-03-29T01:27:07.342Z,91.99
2018-03-29T01:29:33.192Z,91.97
2018-03-29T01:34:40.976Z,92.30
2018-03-29T01:37:06.818Z,92.43
2018-03-29T01:39:32.688Z,92.43
2018-03-29T01:41:58.532Z,92.29
2018-03-29T01:44:24.415Z,92.34
2018-03-29T01:46:50.265Z,92.30
2018-03-29T01:49:16.111Z,92.32
2018-03-29T01:51:41.977Z,92.32
2018-03-29T01:54:07.812Z,92.50
2018-03-29T01:56:33.660Z,92.72
2018-03-29T01:58:59.524Z,92.93
2018-03-29T02:01:25.387Z,93.13
2018-03-29T02:03:51.218Z,93.15
2018-03-29T02:06:17.087Z,93.34
2018-03-29T02:08:42.943Z,93.25
2018-03-29T02:11:08.769Z,93.25
2018-03-29T02:13:34.630Z,93.27
2018-03-29T02:16:00.476Z,93.25
2018-03-29T02:18:26.380Z,93.11
2018-03-29T02:20:52.216Z,92.88
2018-03-29T02:23:18.042Z,92.80
2018-03-29T02:25:43.899Z,92.78
2018-03-29T02:28:09.742Z,92.68
2018-03-29T02:30:35.639Z,93.08
2018-03-29T02:33:01.482Z,93.24
2018-03-29T02:35:27.318Z,93.42
2018-03-29T02:37:53.176Z,93.38
2018-03-29T02:40:19.012Z,93.59
2018-03-29T02:42:44.890Z,93.72
2018-03-29T02:45:10.749Z,93.66
2018-03-29T02:47:36.622Z,93.89
2018-03-29T02:50:02.514Z,94.27
2018-03-29T02:52:28.355Z,94.58
2018-03-29T02:54:54.214Z,94.71
2018-03-29T02:57:20.065Z,94.85
2018-03-29T02:59:45.945Z,94.66
2018-03-29T03:02:11.818Z,94.51
2018-03-29T03:04:37.657Z,94.27
2018-03-29T03:07:03.523Z,93.88
2018-03-29T03:09:29.365Z,93.24
2018-03-29T03:11:55.248Z,92.79
2018-03-29T03:14:21.086Z,92.65
2018-03-29T03:16:46.933Z,92.56
2018-03-29T03:19:12.783Z,92.29
2018-03-29T03:21:38.629Z,92.11
2018-03-29T03:24:04.494Z,91.64
2018-03-29T03:26:30.326Z,91.47
2018-03-29T03:28:56.194Z,91.27
2018-03-29T03:31:22.069Z,91.23
2018-03-29T03:36:40.705Z,90.13
2018-03-29T03:39:06.544Z,89.69
2018-03-29T03:41:32.406Z,89.44
2018-03-29T03:43:58.248Z,89.25
2018-03-29T03:46:24.114Z,89.02
2018-03-29T03:48:49.953Z,88.96
2018-03-29T03:51:15.814Z,88.84
2018-03-29T03:53:41.668Z,88.66
2018-03-29T03:56:07.531Z,88.63
2018-03-29T03:58:33.394Z,88.30
2018-03-29T04:00:59.253Z,88.43
2018-03-29T04:03:25.088Z,88.55
2018-03-29T04:05:50.955Z,88.83
2018-03-29T04:08:16.809Z,88.78
2018-03-29T04:10:42.672Z,88.96
2018-03-29T04:13:08.537Z,89.12
2018-03-29T04:15:34.402Z,89.48
2018-03-29T04:18:00.242Z,89.71
2018-03-29T04:20:26.090Z,90.24
2018-03-29T04:22:51.940Z,90.79
2018-03-29T04:25:17.781Z,91.28
2018-03-29T04:27:43.640Z,91.80
2018-03-29T04:30:09.506Z,92.18
2018-03-29T04:32:35.370Z,92.33
2018-03-29T04:35:01.212Z,92.46
2018-03-29T04:37:27.083Z,92.61
2018-03-29T04:39:52.937Z,92.70
2018-03-29T04:42:18.787Z,92.73
2018-03-29T04:44:44.639Z,92.69
2018-03-29T04:47:10.486Z,92.44
2018-03-29T04:49:36.326Z,92.13
2018-03-29T04:52:02.196Z,92.08
2018-03-29T04:54:28.039Z,91.89
2018-03-29T04:56:53.905Z,91.87
2018-03-29T04:59:19.786Z,91.67
2018-03-29T05:01:45.660Z,91.59
2018-03-29T05:04:11.537Z,91.47
2018-03-29T05:06:37.395Z,91.16
2018-03-29T05:09:03.336Z,90.87
2018-03-29T05:11:29.205Z,90.50
2018-03-29T05:13:55.063Z,90.46
2018-03-29T05:16:20.909Z,91.05
2018-03-29T05:18:46.858Z,91.62
2018-03-29T05:21:12.703Z,91.81
2018-03-29T05:23:38.542Z,91.97
2018-03-29T05:26:06.421Z,92.02
2018-03-29T05:28:32.303Z,91.96
2018-03-29T05:30:58.182Z,91.78
2018-03-29T05:33:24.011Z,91.65
2018-03-29T05:35:50.776Z,91.59
2018-03-29T05:38:16.619Z,91.60
2018-03-29T05:40:42.481Z,91.54
2018-03-29T05:43:08.336Z,91.41
2018-03-29T05:45:34.199Z,91.33
2018-03-29T05:48:00.073Z,91.33
2018-03-29T05:50:25.919Z,91.34
2018-03-29T05:52:51.765Z,91.27
2018-03-29T05:55:17.631Z,91.38
2018-03-29T05:57:43.455Z,91.39
2018-03-29T06:00:09.336Z,91.33
2018-03-29T06:02:35.196Z,91.41
2018-03-29T06:05:01.079Z,91.95
2018-03-29T06:07:26.926Z,93.00
2018-03-29T06:09:52.781Z,93.92
2018-03-29T06:12:18.642Z,94.62
2018-03-29T06:14:44.507Z,95.06
2018-03-29T06:17:16.465Z,95.47
2018-03-29T06:19:42.336Z,95.82
2018-03-29T06:22:08.174Z,96.01
2018-03-29T06:24:34.007Z,96.18
2018-03-29T06:26:59.844Z,96.32
2018-03-29T06:29:25.722Z,96.43
2018-03-29T06:31:51.576Z,96.53
2018-03-29T06:34:17.473Z,96.66
2018-03-29T06:36:43.296Z,96.52
2018-03-29T06:39:09.142Z,96.44
2018-03-29T06:41:34.997Z,96.36
2018-03-29T06:44:00.868Z,96.35
2018-03-29T06:46:26.722Z,96.20
2018-03-29T06:48:52.597Z,96.05
2018-03-29T06:51:18.461Z,95.80
2018-03-29T06:53:44.303Z,95.47
2018-03-29T06:56:10.207Z,95.18
2018-03-29T06:58:36.060Z,94.74
2018-03-29T07:01:01.991Z,94.40
2018-03-29T07:03:27.784Z,93.44
2018-03-29T07:05:53.658Z,93.00
2018-03-29T07:08:19.528Z,92.64
2018-03-29T07:10:45.347Z,92.04
2018-03-29T07:13:11.178Z,91.06
2018-03-29T07:15:37.024Z,90.44
2018-03-29T07:18:02.858Z,89.51
2018-03-29T07:20:28.735Z,88.92
2018-03-29T07:22:54.581Z,88.28
2018-03-29T07:25:20.425Z,87.66
2018-03-29T07:27:46.296Z,87.35
2018-03-29T07:30:12.137Z,86.60
2018-03-29T07:32:38.004Z,86.37
2018-03-29T07:35:03.878Z,85.94
2018-03-29T07:37:29.741Z,86.02
2018-03-29T07:39:56.126Z,86.30
2018-03-29T07:42:21.982Z,86.07
2018-03-29T07:44:47.856Z,85.14
2018-03-29T07:47:13.708Z,84.93
2018-03-29T07:49:39.583Z,84.54
2018-03-29T07:52:05.430Z,84.10
2018-03-29T07:54:31.351Z,84.39
2018-03-29T07:56:57.187Z,83.79
2018-03-29T07:59:23.046Z,83.72
2018-03-29T08:01:48.921Z,83.01
2018-03-29T08:04:14.764Z,83.36
2018-03-29T08:06:40.641Z,82.93
2018-03-29T08:09:06.479Z,82.27
2018-03-29T08:11:32.343Z,82.61
2018-03-29T08:13:58.176Z,82.29
2018-03-29T08:16:24.057Z,82.44
2018-03-29T08:18:49.914Z,82.00
2018-03-29T08:21:15.747Z,81.93
2018-03-29T08:23:41.623Z,82.73
2018-03-29T08:26:07.573Z,82.08
2018-03-29T08:28:33.428Z,81.84
2018-03-29T08:30:59.250Z,81.61
2018-03-29T08:33:25.108Z,80.85
2018-03-29T08:35:50.970Z,80.55
2018-03-29T08:38:16.839Z,80.86
2018-03-29T08:40:42.727Z,81.00
2018-03-29T08:43:08.589Z,81.07
2018-03-29T08:45:34.439Z,81.19
2018-03-29T08:48:00.321Z,81.14
2018-03-29T08:50:26.196Z,80.42
2018-03-29T08:52:52.052Z,80.50
2018-03-29T08:55:17.922Z,81.13
2018-03-29T08:57:43.812Z,81.67
2018-03-29T09:00:09.638Z,82.17
2018-03-29T09:02:35.499Z,82.51
2018-03-29T09:07:54.147Z,82.74
2018-03-29T09:10:19.996Z,82.73
2018-03-29T09:12:45.850Z,82.35
2018-03-29T09:15:11.714Z,82.27
2018-03-29T09:17:37.588Z,82.34
2018-03-29T09:20:03.465Z,82.30
2018-03-29T09:22:29.289Z,82.09
2018-03-29T09:24:55.143Z,82.52
2018-03-29T09:27:21.014Z,81.89
2018-03-29T09:29:46.889Z,81.37
2018-03-29T09:32:12.750Z,79.93
2018-03-29T09:34:38.588Z,79.56
2018-03-29T09:37:04.460Z,79.59
2018-03-29T09:39:45.256Z,79.43
2018-03-29T09:42:11.114Z,79.56
2018-03-29T09:44:36.947Z,80.13
2018-03-29T09:47:02.799Z,80.06
2018-03-29T09:49:28.680Z,81.09
2018-03-29T09:51:54.526Z,81.38
2018-03-29T09:54:20.400Z,81.94
2018-03-29T09:56:46.217Z,82.52
2018-03-29T09:59:12.101Z,82.44
2018-03-29T10:01:37.984Z,82.57
2018-03-29T10:04:09.916Z,82.99
2018-03-29T10:06:40.815Z,82.99
2018-03-29T10:09:06.656Z,82.93
2018-03-29T10:11:32.523Z,82.37
2018-03-29T10:13:58.404Z,81.61
2018-03-29T10:16:24.302Z,80.44
2018-03-29T10:18:50.205Z,79.87
2018-03-29T10:21:16.007Z,79.63
2018-03-29T10:23:41.866Z,79.29
2018-03-29T10:26:07.703Z,78.53
2018-03-29T10:28:33.558Z,78.46
2018-03-29T10:30:59.408Z,78.08
2018-03-29T10:33:25.268Z,77.71
2018-03-29T10:35:51.230Z,76.98
2018-03-29T10:38:17.038Z,77.18
2018-03-29T10:40:42.911Z,77.36
2018-03-29T10:43:08.757Z,78.03
2018-03-29T10:45:34.629Z,78.04
2018-03-29T10:48:00.501Z,77.89
2018-03-29T10:50:26.366Z,77.72
2018-03-29T10:52:52.225Z,78.59
2018-03-29T10:55:18.088Z,77.81
2018-03-29T10:57:43.933Z,77.83
2018-03-29T11:00:09.829Z,77.76
2018-03-29T11:02:35.689Z,77.52
2018-03-29T11:05:01.543Z,78.03
2018-03-29T11:07:27.408Z,78.48
2018-03-29T11:09:53.259Z,79.58
2018-03-29T11:12:19.126Z,79.72
2018-03-29T11:14:44.982Z,79.25
2018-03-29T11:17:10.822Z,78.97
2018-03-29T11:19:36.694Z,78.76
2018-03-29T11:22:02.540Z,79.34
2018-03-29T11:24:28.406Z,78.85
2018-03-29T11:26:54.249Z,78.83
2018-03-29T11:29:20.156Z,79.06
2018-03-29T11:31:46.013Z,79.92
2018-03-29T11:34:11.889Z,79.77
2018-03-29T11:36:37.732Z,80.18
2018-03-29T11:39:03.618Z,80.46
2018-03-29T11:41:29.485Z,81.06
2018-03-29T11:43:55.320Z,81.68
2018-03-29T11:46:21.207Z,82.17
2018-03-29T11:48:47.066Z,82.96
2018-03-29T11:51:12.892Z,84.21
2018-03-29T11:53:38.723Z,85.95
2018-03-29T11:56:04.577Z,87.02
2018-03-29T11:58:30.452Z,87.30
2018-03-29T12:00:56.301Z,87.78
2018-03-29T12:03:22.161Z,88.69
2018-03-29T12:05:48.020Z,88.86
2018-03-29T12:08:13.881Z,88.99
2018-03-29T12:10:39.724Z,88.75
2018-03-29T12:13:05.611Z,88.98
2018-03-29T12:15:31.479Z,87.66
2018-03-29T12:17:57.334Z,86.20
2018-03-29T12:20:23.216Z,85.83
2018-03-29T12:22:49.050Z,84.65
2018-03-29T12:25:14.900Z,83.58
2018-03-29T12:27:40.747Z,82.26
2018-03-29T12:30:06.639Z,81.28
2018-03-29T12:32:32.520Z,80.68
2018-03-29T12:34:58.370Z,79.33
2018-03-29T12:37:24.216Z,78.72
2018-03-29T12:39:50.084Z,78.99
2018-03-29T12:42:15.945Z,78.46
2018-03-29T12:44:41.809Z,78.39
2018-03-29T12:47:07.660Z,79.38
2018-03-29T12:49:33.519Z,78.67
2018-03-29T12:51:59.370Z,78.42
2018-03-29T12:54:37.568Z,78.54
2018-03-29T12:57:15.863Z,77.70
2018-03-29T12:59:41.755Z,77.51
2018-03-29T13:02:07.609Z,77.74
2018-03-29T13:04:33.473Z,77.85
2018-03-29T13:06:59.310Z,76.49
2018-03-29T13:09:25.164Z,76.74
2018-03-29T13:11:51.061Z,75.95
2018-03-29T13:14:16.921Z,77.01
2018-03-29T13:16:42.780Z,75.53
2018-03-29T13:19:08.616Z,73.45
2018-03-29T13:21:34.528Z,71.37
2018-03-29T13:24:00.373Z,71.24
2018-03-29T13:26:26.238Z,68.53
2018-03-29T13:28:52.105Z,69.17
2018-03-29T13:31:17.968Z,68.30
2018-03-29T13:33:43.836Z,69.44
2018-03-29T13:36:09.655Z,69.20
2018-03-29T13:38:35.537Z,70.17
2018-03-29T13:41:01.385Z,69.63
2018-03-29T13:43:27.266Z,69.64
2018-03-29T13:45:53.118Z,71.31
2018-03-29T13:48:18.976Z,70.76
2018-03-29T13:50:44.846Z,69.63
2018-03-29T13:53:10.707Z,69.66
2018-03-29T13:55:36.602Z,69.93
2018-03-29T13:58:02.738Z,68.34
2018-03-29T14:00:28.592Z,69.98
2018-03-29T14:02:54.476Z,69.60
2018-03-29T14:05:20.331Z,69.37
2018-03-29T14:07:46.222Z,71.21
2018-03-29T14:10:12.057Z,69.39
2018-03-29T14:12:37.946Z,68.04
2018-03-29T14:15:03.819Z,69.54
2018-03-29T14:17:29.669Z,68.12
2018-03-29T14:19:55.571Z,65.47
2018-03-29T14:22:21.432Z,64.89
2018-03-29T14:24:47.288Z,66.43
2018-03-29T14:27:13.135Z,64.90
2018-03-29T14:29:39.008Z,67.57
2018-03-29T14:32:04.866Z,66.11
2018-03-29T14:34:30.729Z,66.82
2018-03-29T14:36:56.667Z,66.13
2018-03-29T14:39:22.538Z,66.85
2018-03-29T14:41:48.411Z,67.48
2018-03-29T14:44:14.288Z,67.92
2018-03-29T14:46:40.176Z,67.47
2018-03-29T14:49:06.040Z,66.01
2018-03-29T14:51:31.890Z,65.00
2018-03-29T14:53:57.766Z,64.38
2018-03-29T14:56:23.631Z,65.30
2018-03-29T14:58:49.569Z,66.39
2018-03-29T15:01:15.432Z,63.38
2018-03-29T15:03:41.400Z,64.00
2018-03-29T15:06:07.271Z,62.66
2018-03-29T15:08:33.149Z,61.30
2018-03-29T15:10:59.029Z,62.52
2018-03-29T15:13:24.890Z,64.10
2018-03-29T15:15:50.763Z,62.92
2018-03-29T15:18:16.607Z,61.58
2018-03-29T15:20:42.445Z,61.13
2018-03-29T15:23:08.301Z,60.71
2018-03-29T15:25:34.189Z,61.62
2018-03-29T15:28:01.082Z,62.49
2018-03-29T15:30:26.938Z,60.15
2018-03-29T15:32:52.816Z,60.40
2018-03-29T15:35:18.695Z,61.95
2018-03-29T15:37:44.545Z,60.72
2018-03-29T15:40:10.422Z,59.50
2018-03-29T15:42:36.265Z,62.08
2018-03-29T15:45:02.140Z,61.48
2018-03-29T15:47:27.988Z,61.86
2018-03-29T15:49:53.850Z,63.35
2018-03-29T15:52:19.737Z,64.28
2018-03-29T15:54:45.581Z,65.10
2018-03-29T15:57:11.435Z,65.94
2018-03-29T15:59:37.290Z,67.94
2018-03-29T16:02:03.196Z,69.41
2018-03-29T16:04:29.060Z,68.89
2018-03-29T16:06:54.933Z,68.85
2018-03-29T16:09:20.790Z,69.87
2018-03-29T16:11:46.669Z,69.35
2018-03-29T16:14:12.518Z,69.08
2018-03-29T16:16:38.386Z,68.87
2018-03-29T16:19:04.263Z,68.74
2018-03-29T16:24:12.096Z,70.05
2018-03-29T16:26:37.985Z,69.54
2018-03-29T16:29:03.859Z,70.39
2018-03-29T16:31:29.743Z,70.89
2018-03-29T16:33:55.677Z,71.12
2018-03-29T16:36:21.531Z,71.49
2018-03-29T16:38:47.416Z,72.42
2018-03-29T16:41:13.297Z,71.72
2018-03-29T16:43:39.177Z,71.91
2018-03-29T16:46:05.059Z,72.49
2018-03-29T16:48:30.931Z,72.67
2018-03-29T16:50:56.830Z,72.56
2018-03-29T16:53:22.687Z,73.00
2018-03-29T16:55:48.699Z,73.49
2018-03-29T16:58:14.625Z,73.47
2018-03-29T17:00:40.449Z,73.77
2018-03-29T17:03:06.334Z,74.03
2018-03-29T17:05:32.208Z,74.81
2018-03-29T17:07:58.151Z,74.84
2018-03-29T17:10:24.000Z,74.67
2018-03-29T17:12:49.929Z,74.98
2018-03-29T17:15:15.806Z,75.07
2018-03-29T17:17:41.656Z,75.67
2018-03-29T17:20:07.516Z,76.76
2018-03-29T17:22:33.387Z,76.38
2018-03-29T17:24:59.247Z,76.77
2018-03-29T17:27:25.139Z,76.95
2018-03-29T17:29:51.042Z,77.56
2018-03-29T17:32:16.888Z,77.72
2018-03-29T17:34:42.770Z,77.52
2018-03-29T17:37:08.615Z,77.80
2018-03-29T17:39:34.517Z,77.89
2018-03-29T17:42:00.423Z,78.05
2018-03-29T17:44:26.293Z,78.13
2018-03-29T17:46:53.200Z,78.30
2018-03-29T17:49:19.059Z,78.56
2018-03-29T17:51:44.938Z,78.80
2018-03-29T17:54:10.779Z,79.08
2018-03-29T17:56:36.716Z,79.44
2018-03-29T17:59:02.642Z,79.98
2018-03-29T18:01:28.560Z,80.54
2018-03-29T18:03:54.450Z,80.98
2018-03-29T18:06:20.301Z,81.56
2018-03-29T18:08:46.184Z,81.77
2018-03-29T18:11:12.098Z,82.26
2018-03-29T18:13:38.018Z,82.39
2018-03-29T18:16:03.911Z,82.75
2018-03-29T18:18:29.782Z,82.97
2018-03-29T18:20:55.809Z,83.29
2018-03-29T18:23:21.668Z,83.40
2018-03-29T18:25:48.450Z,83.65
2018-03-29T18:28:14.660Z,84.01
2018-03-29T18:30:40.581Z,84.22
2018-03-29T18:33:06.467Z,84.65
2018-03-29T18:35:33.327Z,85.01
2018-03-29T18:37:59.235Z,85.33
2018-03-29T18:40:25.321Z,85.46
2018-03-29T18:42:51.275Z,85.69
2018-03-29T18:45:17.136Z,85.68
2018-03-29T18:47:43.612Z,85.76
2018-03-29T18:50:09.494Z,85.70
2018-03-29T18:52:35.348Z,85.70
2018-03-29T18:55:01.831Z,85.64
2018-03-29T18:57:27.700Z,85.84
2018-03-29T18:59:53.635Z,85.73
2018-03-29T19:02:19.499Z,85.58
2018-03-29T19:04:45.363Z,85.64
2018-03-29T19:07:11.297Z,85.70
2018-03-29T19:09:37.238Z,86.01
2018-03-29T19:12:03.172Z,85.77
2018-03-29T19:14:29.714Z,85.79
2018-03-29T19:16:56.435Z,85.79
2018-03-29T19:19:22.443Z,85.82
2018-03-29T19:21:48.369Z,85.88
2018-03-29T19:24:14.261Z,85.91
2018-03-29T19:26:40.164Z,86.18
2018-03-29T19:29:06.127Z,86.06
2018-03-29T19:31:32.031Z,86.16
2018-03-29T19:33:57.950Z,86.05
2018-03-29T19:36:23.871Z,86.08
2018-03-29T19:38:49.809Z,86.26
2018-03-29T19:41:16.494Z,86.25
2018-03-29T19:43:42.457Z,86.42
2018-03-29T19:46:08.387Z,86.32
2018-03-29T19:48:34.263Z,86.51
2018-03-29T19:51:00.198Z,86.72
2018-03-29T19:53:26.125Z,86.80
2018-03-29T19:55:52.040Z,86.87
2018-03-29T19:58:18.093Z,87.07
2018-03-29T20:00:44.338Z,87.27
2018-03-29T20:03:12.102Z,87.46
2018-03-29T20:05:38.133Z,87.57
2018-03-29T20:08:04.043Z,87.67
2018-03-29T20:10:29.950Z,87.75
2018-03-29T20:12:55.813Z,87.86
2018-03-29T20:15:21.741Z,87.93
2018-03-29T20:17:47.660Z,88.17
2018-03-29T20:20:13.941Z,88.04
2018-03-29T20:22:39.837Z,88.16
2018-03-29T20:25:05.711Z,88.31
2018-03-29T20:27:31.627Z,88.49
2018-03-29T20:29:58.339Z,88.75
2018-03-29T20:32:24.280Z,88.93
2018-03-29T20:34:50.166Z,89.00
2018-03-29T20:37:16.077Z,89.08
2018-03-29T20:39:42.050Z,89.15
2018-03-29T20:42:07.958Z,89.43
2018-03-29T20:44:48.806Z,89.39
2018-03-29T20:47:14.731Z,89.27
2018-03-29T20:49:41.007Z,89.44
2018-03-29T20:52:06.932Z,89.48
2018-03-29T20:54:32.807Z,89.38
2018-03-29T20:56:58.686Z,89.41
2018-03-29T20:59:24.599Z,89.88
2018-03-29T21:01:50.487Z,89.88
2018-03-29T21:04:16.377Z,89.63
2018-03-29T21:06:42.247Z,89.70
2018-03-29T21:09:08.127Z,89.90
2018-03-29T21:11:34.055Z,90.03
2018-03-29T21:13:59.964Z,89.96
2018-03-29T21:16:26.829Z,89.90
2018-03-29T21:18:52.787Z,89.77
2018-03-29T21:21:18.682Z,90.06
2018-03-29T21:23:44.558Z,90.08
2018-03-29T21:26:10.440Z,89.99
2018-03-29T21:28:36.455Z,90.13
2018-03-29T21:31:02.447Z,90.38
2018-03-29T21:33:28.340Z,90.32
2018-03-29T21:35:54.460Z,90.24
2018-03-29T21:38:20.295Z,90.93
2018-03-29T21:40:46.229Z,91.45
2018-03-29T21:43:12.198Z,91.27
2018-03-29T21:45:38.167Z,91.89
2018-03-29T21:48:04.107Z,91.66
2018-03-29T21:50:30.603Z,91.54
2018-03-29T21:52:56.526Z,91.61
2018-03-29T21:55:22.385Z,91.55
2018-03-29T21:57:48.305Z,91.29
2018-03-29T22:00:14.814Z,91.10
2018-03-29T22:02:40.835Z,91.00
2018-03-29T22:05:06.758Z,91.00
2018-03-29T22:07:32.604Z,91.15
2018-03-29T22:09:58.495Z,90.82
2018-03-29T22:12:25.339Z,90.93
2018-03-29T22:14:51.218Z,90.85
2018-03-29T22:17:17.098Z,90.75
2018-03-29T22:19:42.983Z,90.83
2018-03-29T22:22:08.843Z,90.83
2018-03-29T22:24:34.808Z,90.91
2018-03-29T22:27:00.712Z,90.68
2018-03-29T22:29:26.628Z,90.68
2018-03-29T22:31:52.489Z,90.75
2018-03-29T22:34:18.438Z,90.71
2018-03-29T22:36:48.619Z,90.91
2018-03-29T22:39:14.506Z,91.10
2018-03-29T22:41:40.482Z,90.86
2018-03-29T22:44:06.347Z,90.87
2018-03-29T22:46:32.203Z,90.73
2018-03-29T22:48:58.070Z,90.87
2018-03-29T22:51:23.899Z,90.78
2018-03-29T22:53:49.797Z,90.87
2018-03-29T22:56:15.652Z,90.91
2018-03-29T22:58:41.506Z,90.85
2018-03-29T23:01:07.389Z,90.73
2018-03-29T23:03:33.253Z,90.85
2018-03-29T23:05:59.154Z,90.91
2018-03-29T23:11:17.821Z,90.77
2018-03-29T23:13:43.659Z,90.90
2018-03-29T23:16:09.517Z,91.00
2018-03-29T23:18:35.365Z,91.04
2018-03-29T23:21:01.222Z,91.29
2018-03-29T23:23:27.117Z,91.24
2018-03-29T23:25:52.985Z,91.20
2018-03-29T23:28:18.851Z,91.15
2018-03-29T23:30:44.715Z,90.97
2018-03-29T23:33:10.577Z,91.13
2018-03-29T23:35:36.444Z,91.07
2018-03-29T23:38:02.293Z,91.36
2018-03-29T23:40:28.135Z,91.64
2018-03-29T23:42:53.976Z,91.64
2018-03-29T23:45:19.860Z,91.45
2018-03-29T23:47:45.714Z,91.54
2018-03-29T23:50:11.568Z,91.59
2018-03-29T23:52:37.424Z,91.50
2018-03-29T23:55:03.259Z,91.65
2018-03-29T23:57:29.205Z,91.45
2018-03-29T23:59:55.053Z,91.54
